createdAt,value
2023-03-24T00:03:19.000Z,12.08
2023-03-24T00:08:14.000Z,12.04
2023-03-24T00:13:09.000Z,12.03
2023-03-24T00:18:03.000Z,12.02
2023-03-24T00:22:57.000Z,12.04
2023-03-24T00:27:51.000Z,11.97
2023-03-24T00:32:46.000Z,11.81
2023-03-24T00:37:40.000Z,11.63
2023-03-24T00:42:35.000Z,11.63
2023-03-24T00:47:29.000Z,11.62
2023-03-24T00:52:26.000Z,11.57
2023-03-24T00:57:17.000Z,11.62
2023-03-24T01:02:11.000Z,11.66
2023-03-24T01:07:05.000Z,11.78
2023-03-24T01:12:00.000Z,11.71
2023-03-24T01:16:54.000Z,11.72
2023-03-24T01:21:51.000Z,11.78
2023-03-24T01:26:43.000Z,11.77
2023-03-24T01:31:37.000Z,11.8
2023-03-24T01:36:31.000Z,11.78
2023-03-24T01:41:25.000Z,11.74
2023-03-24T01:46:17.000Z,11.69
2023-03-24T01:51:11.000Z,11.69
2023-03-24T01:56:08.000Z,11.7
2023-03-24T02:00:59.000Z,11.63
2023-03-24T02:05:53.000Z,11.54
2023-03-24T02:10:47.000Z,11.81
2023-03-24T02:15:39.000Z,12.09
2023-03-24T02:20:36.000Z,12.17
2023-03-24T02:25:24.000Z,12.2
2023-03-24T02:30:19.000Z,12.35
2023-03-24T02:35:13.000Z,12.36
2023-03-24T02:40:05.000Z,12.42
2023-03-24T02:45:00.000Z,12.5
2023-03-24T02:49:54.000Z,12.52
2023-03-24T02:54:48.000Z,12.56
2023-03-24T02:59:42.000Z,12.56
2023-03-24T03:04:37.000Z,12.62
2023-03-24T03:09:31.000Z,12.57
2023-03-24T03:14:24.000Z,12.58
2023-03-24T03:19:17.000Z,12.59
2023-03-24T03:24:11.000Z,12.57
2023-03-24T03:29:05.000Z,12.61
2023-03-24T03:34:00.000Z,12.53
2023-03-24T03:38:55.000Z,12.58
2023-03-24T03:43:48.000Z,12.61
2023-03-24T03:48:42.000Z,12.68
2023-03-24T03:53:37.000Z,12.73
2023-03-24T03:58:31.000Z,12.72
2023-03-24T04:03:25.000Z,12.7
2023-03-24T04:08:19.000Z,12.67
2023-03-24T04:13:13.000Z,12.65
2023-03-24T04:18:05.000Z,12.73
2023-03-24T04:22:59.000Z,12.72
2023-03-24T04:27:53.000Z,12.66
2023-03-24T04:32:47.000Z,12.68
2023-03-24T04:37:42.000Z,12.61
2023-03-24T04:42:36.000Z,12.59
2023-03-24T04:47:30.000Z,12.57
2023-03-24T04:52:25.000Z,12.58
2023-03-24T04:57:20.000Z,12.53
2023-03-24T05:02:08.000Z,12.55
2023-03-24T05:07:02.000Z,12.5
2023-03-24T05:11:56.000Z,12.49
2023-03-24T05:16:50.000Z,12.46
2023-03-24T05:21:44.000Z,12.5
2023-03-24T05:26:39.000Z,12.45
2023-03-24T05:31:33.000Z,12.39
2023-03-24T05:36:27.000Z,12.32
2023-03-24T05:41:22.000Z,12.27
2023-03-24T05:46:16.000Z,12.26
2023-03-24T05:51:09.000Z,12.29
2023-03-24T05:56:03.000Z,12.32
2023-03-24T06:00:58.000Z,12.3
2023-03-24T06:05:52.000Z,12.39
2023-03-24T06:10:46.000Z,12.31
2023-03-24T06:15:40.000Z,12.35
2023-03-24T06:20:34.000Z,12.39
2023-03-24T06:25:29.000Z,12.39
2023-03-24T06:30:23.000Z,12.38
2023-03-24T06:35:16.000Z,12.38
2023-03-24T06:40:10.000Z,12.4
2023-03-24T06:45:04.000Z,12.42
2023-03-24T06:49:59.000Z,12.55
2023-03-24T06:54:51.000Z,12.72
2023-03-24T06:59:45.000Z,12.85
2023-03-24T07:04:39.000Z,12.81
2023-03-24T07:09:36.000Z,12.55
2023-03-24T07:14:27.000Z,12.57
2023-03-24T07:19:21.000Z,12.51
2023-03-24T07:24:15.000Z,12.54
2023-03-24T07:29:09.000Z,12.49
2023-03-24T07:34:03.000Z,12.44
2023-03-24T07:38:57.000Z,10.92
2023-03-24T07:43:51.000Z,10.07
2023-03-24T07:48:45.000Z,9.79
2023-03-24T07:53:39.000Z,9.66
2023-03-24T07:58:33.000Z,9.58
2023-03-24T08:03:27.000Z,9.53
2023-03-24T08:08:21.000Z,9.56
2023-03-24T08:13:15.000Z,9.63
2023-03-24T08:18:09.000Z,9.81
2023-03-24T08:23:03.000Z,9.82
2023-03-24T08:27:58.000Z,9.62
2023-03-24T08:32:52.000Z,9.52
2023-03-24T08:37:46.000Z,9.63
2023-03-24T08:42:41.000Z,9.78
2023-03-24T08:47:35.000Z,9.68
2023-03-24T08:52:30.000Z,10.02
2023-03-24T08:57:22.000Z,10
2023-03-24T09:02:17.000Z,10.28
2023-03-24T09:07:12.000Z,10.45
2023-03-24T09:12:06.000Z,10.39
2023-03-24T09:17:01.000Z,10.25
2023-03-24T09:21:56.000Z,10.39
2023-03-24T09:26:50.000Z,10.45
2023-03-24T09:31:45.000Z,10.63
2023-03-24T09:36:39.000Z,11.02
2023-03-24T09:41:34.000Z,11.17
2023-03-24T09:46:28.000Z,11.18
2023-03-24T09:51:22.000Z,10.88
2023-03-24T09:56:17.000Z,10.94
2023-03-24T10:01:11.000Z,11.03
2023-03-24T10:06:06.000Z,11.24
2023-03-24T10:11:01.000Z,11.72
2023-03-24T10:15:55.000Z,11.67
2023-03-24T10:20:50.000Z,11.92
2023-03-24T10:25:44.000Z,12.33
2023-03-24T10:30:39.000Z,11.64
2023-03-24T10:35:33.000Z,11.71
2023-03-24T10:40:28.000Z,12.57
2023-03-24T10:45:23.000Z,13.49
2023-03-24T10:50:19.000Z,14.67
2023-03-24T10:55:13.000Z,13.19
2023-03-24T11:00:08.000Z,13.51
2023-03-24T11:05:02.000Z,15.25
2023-03-24T11:09:58.000Z,16.22
2023-03-24T11:14:54.000Z,17.95
2023-03-24T11:19:49.000Z,15.84
2023-03-24T11:24:41.000Z,17.91
2023-03-24T11:29:36.000Z,17.17
2023-03-24T11:34:31.000Z,19.74
2023-03-24T11:39:26.000Z,18.68
2023-03-24T11:44:21.000Z,19.15
2023-03-24T11:49:13.000Z,16.38
2023-03-24T11:54:06.000Z,17.75
2023-03-24T11:59:01.000Z,16.26
2023-03-24T12:03:54.000Z,18.45
2023-03-24T12:08:49.000Z,17.13
2023-03-24T12:13:44.000Z,19.54
2023-03-24T12:18:39.000Z,19.46
2023-03-24T12:23:33.000Z,19.9
2023-03-24T12:28:28.000Z,16.94
2023-03-24T12:33:24.000Z,16.74
2023-03-24T12:38:13.000Z,15.87
2023-03-24T12:43:06.000Z,15.2
2023-03-24T12:47:59.000Z,15.21
2023-03-24T12:52:56.000Z,15.37
2023-03-24T12:57:47.000Z,14.9
2023-03-24T13:02:41.000Z,14.89
2023-03-24T13:07:34.000Z,15.26
2023-03-24T13:12:27.000Z,15.09
2023-03-24T13:17:21.000Z,14.76
2023-03-24T13:22:14.000Z,14.8
2023-03-24T13:27:09.000Z,14.91
2023-03-24T13:32:02.000Z,15.56
2023-03-24T13:36:57.000Z,15.15
2023-03-24T13:41:51.000Z,14.65
2023-03-24T13:46:46.000Z,14.54
2023-03-24T13:51:40.000Z,15.69
2023-03-24T13:56:35.000Z,18.24
2023-03-24T14:01:29.000Z,16.02
2023-03-24T14:06:23.000Z,17.08
2023-03-24T14:11:15.000Z,15.95
2023-03-24T14:16:09.000Z,15.81
2023-03-24T14:21:03.000Z,15.71
2023-03-24T14:26:00.000Z,15.57
2023-03-24T14:30:51.000Z,16.05
2023-03-24T14:35:45.000Z,17.11
2023-03-24T14:40:40.000Z,15.93
2023-03-24T14:45:34.000Z,15.65
2023-03-24T14:50:28.000Z,15.37
2023-03-24T14:55:22.000Z,15.23
2023-03-24T15:00:16.000Z,17.32
2023-03-24T15:05:11.000Z,18.64
2023-03-24T15:10:05.000Z,16.25
2023-03-24T15:14:59.000Z,17.2
2023-03-24T15:19:53.000Z,15.99
2023-03-24T15:24:48.000Z,18.38
2023-03-24T15:29:42.000Z,16.52
2023-03-24T15:34:36.000Z,15.46
2023-03-24T15:39:30.000Z,15.33
2023-03-24T15:44:22.000Z,15.04
2023-03-24T15:49:16.000Z,15.06
2023-03-24T15:54:10.000Z,14.91
2023-03-24T15:59:07.000Z,16.6
2023-03-24T16:03:58.000Z,15.36
2023-03-24T16:08:50.000Z,15.31
2023-03-24T16:13:44.000Z,15.11
2023-03-24T16:18:38.000Z,14.95
2023-03-24T16:23:31.000Z,14.68
2023-03-24T16:28:26.000Z,14.45
2023-03-24T16:33:19.000Z,14.34
2023-03-24T16:38:13.000Z,14.19
2023-03-24T16:43:07.000Z,14.04
2023-03-24T16:48:01.000Z,14.09
2023-03-24T16:52:56.000Z,14.83
2023-03-24T16:57:50.000Z,14.12
2023-03-24T17:02:44.000Z,13.69
2023-03-24T17:07:37.000Z,12.47
2023-03-24T17:12:30.000Z,11.95
2023-03-24T17:17:24.000Z,11.88
2023-03-24T17:22:18.000Z,11.84
2023-03-24T17:27:13.000Z,11.79
2023-03-24T17:32:07.000Z,11.71
2023-03-24T17:37:02.000Z,11.77
2023-03-24T17:41:56.000Z,11.72
2023-03-24T17:46:50.000Z,11.84
2023-03-24T17:51:43.000Z,11.88
2023-03-24T17:56:37.000Z,11.81
2023-03-24T18:01:31.000Z,10.35
2023-03-24T18:06:25.000Z,8.07
2023-03-24T18:11:18.000Z,7.73
2023-03-24T18:16:12.000Z,7.72
2023-03-24T18:21:03.000Z,7.75
2023-03-24T18:25:57.000Z,7.77
2023-03-24T18:30:51.000Z,7.82
2023-03-24T18:35:45.000Z,7.71
2023-03-24T18:40:39.000Z,7.59
2023-03-24T18:45:33.000Z,7.63
2023-03-24T18:50:27.000Z,7.56
2023-03-24T18:55:21.000Z,7.53
2023-03-24T19:00:14.000Z,7.43
2023-03-24T19:05:09.000Z,7.67
2023-03-24T19:10:02.000Z,7.76
2023-03-24T19:14:56.000Z,7.9
2023-03-24T19:19:50.000Z,7.92
2023-03-24T19:24:43.000Z,7.88
2023-03-24T19:29:37.000Z,7.83
2023-03-24T19:34:30.000Z,7.88
2023-03-24T19:39:24.000Z,8.06
2023-03-24T19:44:22.000Z,8.14
2023-03-24T19:49:11.000Z,8.23
2023-03-24T19:54:04.000Z,8.24
2023-03-24T19:59:01.000Z,8.35
2023-03-24T20:03:52.000Z,8.27
2023-03-24T20:08:46.000Z,8.38
2023-03-24T20:13:39.000Z,8.41
2023-03-24T20:18:36.000Z,8.37
2023-03-24T20:23:26.000Z,8.22
2023-03-24T20:28:20.000Z,7.97
2023-03-24T20:33:11.000Z,7.92
2023-03-24T20:38:06.000Z,7.83
2023-03-24T20:42:59.000Z,7.79
2023-03-24T20:47:52.000Z,7.68
2023-03-24T20:52:46.000Z,7.63
2023-03-24T20:57:40.000Z,7.61
2023-03-24T21:02:34.000Z,7.57
2023-03-24T21:07:26.000Z,7.59
2023-03-24T21:12:20.000Z,7.48
2023-03-24T21:17:12.000Z,7.49
2023-03-24T21:22:03.000Z,7.81
2023-03-24T21:26:58.000Z,7.55
2023-03-24T21:31:52.000Z,7.5
2023-03-24T21:36:46.000Z,7.43
2023-03-24T21:41:40.000Z,7.44
2023-03-24T21:46:34.000Z,7.41
2023-03-24T21:51:27.000Z,7.43
2023-03-24T21:56:21.000Z,7.39
2023-03-24T22:01:14.000Z,7.41
2023-03-24T22:06:05.000Z,7.32
2023-03-24T22:10:58.000Z,7.31
2023-03-24T22:15:53.000Z,7.3
2023-03-24T22:20:47.000Z,7.27
2023-03-24T22:25:41.000Z,7.41
2023-03-24T22:30:35.000Z,7.44
2023-03-24T22:35:30.000Z,7.41
2023-03-24T22:40:24.000Z,7.44
2023-03-24T22:45:18.000Z,7.45
2023-03-24T22:50:12.000Z,7.42
2023-03-24T22:55:06.000Z,7.44
2023-03-24T23:00:00.000Z,7.36
2023-03-24T23:04:54.000Z,7.34
2023-03-24T23:09:48.000Z,7.35
2023-03-24T23:14:42.000Z,7.25
2023-03-24T23:19:36.000Z,7.24
2023-03-24T23:24:30.000Z,7.27
2023-03-24T23:29:24.000Z,7.32
2023-03-24T23:34:18.000Z,7.34
2023-03-24T23:39:12.000Z,7.29
2023-03-24T23:44:04.000Z,7.27
2023-03-24T23:48:58.000Z,7.28
2023-03-24T23:53:52.000Z,7.2
2023-03-24T23:58:46.000Z,7.2
